sensor_id;sensor_type;location;lat;lon;timestamp;temperature;humidity
21338;DHT22;10827;50.878;4.382;2022-07-29T00:00:40;21.00;99.90
21338;DHT22;10827;50.878;4.382;2022-07-29T00:03:06;21.00;69.80
21338;DHT22;10827;50.878;4.382;2022-07-29T00:05:32;21.00;26.00
21338;DHT22;10827;50.878;4.382;2022-07-29T00:07:57;21.10;99.90
21338;DHT22;10827;50.878;4.382;2022-07-29T00:10:23;21.30;1.00
21338;DHT22;10827;50.878;4.382;2022-07-29T00:12:49;21.60;1.00
21338;DHT22;10827;50.878;4.382;2022-07-29T00:15:14;21.40;1.00
21338;DHT22;10827;50.878;4.382;2022-07-29T00:17:40;21.30;9.90
21338;DHT22;10827;50.878;4.382;2022-07-29T00:20:06;21.50;1.00
21338;DHT22;10827;50.878;4.382;2022-07-29T00:22:37;20.80;1.00
21338;DHT22;10827;50.878;4.382;2022-07-29T00:25:04;21.40;1.00
21338;DHT22;10827;50.878;4.382;2022-07-29T00:27:29;21.70;1.00
21338;DHT22;10827;50.878;4.382;2022-07-29T00:29:55;21.50;1.00
21338;DHT22;10827;50.878;4.382;2022-07-29T00:32:21;21.40;1.00
21338;DHT22;10827;50.878;4.382;2022-07-29T00:34:46;21.60;99.90
21338;DHT22;10827;50.878;4.382;2022-07-29T00:37:31;21.40;99.90
21338;DHT22;10827;50.878;4.382;2022-07-29T00:39:56;21.30;99.90
21338;DHT22;10827;50.878;4.382;2022-07-29T00:42:22;21.20;1.00
21338;DHT22;10827;50.878;4.382;2022-07-29T00:44:48;21.60;99.90
21338;DHT22;10827;50.878;4.382;2022-07-29T00:47:13;21.40;99.90
21338;DHT22;10827;50.878;4.382;2022-07-29T00:49:41;21.70;99.90
21338;DHT22;10827;50.878;4.382;2022-07-29T00:52:08;21.40;99.90
21338;DHT22;10827;50.878;4.382;2022-07-29T00:54:35;21.30;1.00
21338;DHT22;10827;50.878;4.382;2022-07-29T00:57:01;20.70;99.90
21338;DHT22;10827;50.878;4.382;2022-07-29T00:59:27;20.70;99.90
21338;DHT22;10827;50.878;4.382;2022-07-29T01:01:53;20.50;99.90
21338;DHT22;10827;50.878;4.382;2022-07-29T01:04:20;20.70;99.90
21338;DHT22;10827;50.878;4.382;2022-07-29T01:06:47;20.70;99.90
21338;DHT22;10827;50.878;4.382;2022-07-29T01:09:14;21.20;1.00
21338;DHT22;10827;50.878;4.382;2022-07-29T01:11:42;21.60;1.00
21338;DHT22;10827;50.878;4.382;2022-07-29T01:14:08;21.60;99.90
21338;DHT22;10827;50.878;4.382;2022-07-29T01:16:46;21.40;99.90
21338;DHT22;10827;50.878;4.382;2022-07-29T01:19:33;20.90;1.00
21338;DHT22;10827;50.878;4.382;2022-07-29T01:22:31;20.40;99.90
21338;DHT22;10827;50.878;4.382;2022-07-29T01:25:32;20.40;99.90
21338;DHT22;10827;50.878;4.382;2022-07-29T01:30:54;20.30;1.00
21338;DHT22;10827;50.878;4.382;2022-07-29T01:33:22;20.70;99.90
21338;DHT22;10827;50.878;4.382;2022-07-29T01:36:14;20.30;99.90
21338;DHT22;10827;50.878;4.382;2022-07-29T01:38:43;20.30;99.90
21338;DHT22;10827;50.878;4.382;2022-07-29T01:41:14;20.10;1.00
21338;DHT22;10827;50.878;4.382;2022-07-29T01:44:10;20.20;1.00
21338;DHT22;10827;50.878;4.382;2022-07-29T01:46:39;20.40;99.90
21338;DHT22;10827;50.878;4.382;2022-07-29T01:49:20;20.40;1.00
21338;DHT22;10827;50.878;4.382;2022-07-29T01:51:50;20.30;1.00
21338;DHT22;10827;50.878;4.382;2022-07-29T01:56:51;19.80;1.00
21338;DHT22;10827;50.878;4.382;2022-07-29T01:59:18;20.00;1.00
21338;DHT22;10827;50.878;4.382;2022-07-29T02:01:45;19.70;1.00
21338;DHT22;10827;50.878;4.382;2022-07-29T02:04:13;19.60;1.00
21338;DHT22;10827;50.878;4.382;2022-07-29T02:06:41;19.70;1.00
21338;DHT22;10827;50.878;4.382;2022-07-29T02:09:08;19.20;1.00
21338;DHT22;10827;50.878;4.382;2022-07-29T02:11:36;19.60;1.00
21338;DHT22;10827;50.878;4.382;2022-07-29T02:14:04;19.60;1.00
21338;DHT22;10827;50.878;4.382;2022-07-29T02:16:32;19.70;1.00
21338;DHT22;10827;50.878;4.382;2022-07-29T02:19:01;19.40;1.00
21338;DHT22;10827;50.878;4.382;2022-07-29T02:21:28;19.70;1.00
21338;DHT22;10827;50.878;4.382;2022-07-29T02:23:56;19.70;1.00
21338;DHT22;10827;50.878;4.382;2022-07-29T02:26:25;19.70;1.00
21338;DHT22;10827;50.878;4.382;2022-07-29T02:28:54;19.70;1.00
21338;DHT22;10827;50.878;4.382;2022-07-29T02:31:25;19.70;1.00
21338;DHT22;10827;50.878;4.382;2022-07-29T02:33:52;19.80;1.00
21338;DHT22;10827;50.878;4.382;2022-07-29T02:36:21;19.70;1.00
21338;DHT22;10827;50.878;4.382;2022-07-29T02:38:48;20.10;1.00
21338;DHT22;10827;50.878;4.382;2022-07-29T02:41:37;19.40;1.00
21338;DHT22;10827;50.878;4.382;2022-07-29T02:44:10;19.30;1.00
21338;DHT22;10827;50.878;4.382;2022-07-29T02:46:41;19.40;1.00
21338;DHT22;10827;50.878;4.382;2022-07-29T02:52:42;19.50;1.00
21338;DHT22;10827;50.878;4.382;2022-07-29T02:54:51;19.30;1.00
21338;DHT22;10827;50.878;4.382;2022-07-29T02:59:54;18.70;1.00
21338;DHT22;10827;50.878;4.382;2022-07-29T03:02:25;18.80;1.00
21338;DHT22;10827;50.878;4.382;2022-07-29T03:04:53;18.60;1.00
21338;DHT22;10827;50.878;4.382;2022-07-29T03:07:21;18.70;1.00
21338;DHT22;10827;50.878;4.382;2022-07-29T03:09:47;18.80;1.00
21338;DHT22;10827;50.878;4.382;2022-07-29T03:12:14;18.90;1.00
21338;DHT22;10827;50.878;4.382;2022-07-29T03:14:41;19.00;1.00
21338;DHT22;10827;50.878;4.382;2022-07-29T03:17:09;19.10;1.00
21338;DHT22;10827;50.878;4.382;2022-07-29T03:19:35;19.10;1.00
21338;DHT22;10827;50.878;4.382;2022-07-29T03:22:01;18.70;1.00
21338;DHT22;10827;50.878;4.382;2022-07-29T03:24:33;18.80;1.00
21338;DHT22;10827;50.878;4.382;2022-07-29T03:26:59;18.90;1.00
21338;DHT22;10827;50.878;4.382;2022-07-29T03:29:25;18.80;1.00
21338;DHT22;10827;50.878;4.382;2022-07-29T03:31:52;18.70;1.00
21338;DHT22;10827;50.878;4.382;2022-07-29T03:34:18;18.90;1.00
21338;DHT22;10827;50.878;4.382;2022-07-29T03:36:44;19.00;1.00
21338;DHT22;10827;50.878;4.382;2022-07-29T03:39:10;19.00;1.00
21338;DHT22;10827;50.878;4.382;2022-07-29T03:41:38;18.70;1.00
21338;DHT22;10827;50.878;4.382;2022-07-29T03:44:07;18.80;1.00
21338;DHT22;10827;50.878;4.382;2022-07-29T03:46:35;19.40;1.00
21338;DHT22;10827;50.878;4.382;2022-07-29T03:49:03;19.80;1.00
21338;DHT22;10827;50.878;4.382;2022-07-29T03:51:30;19.90;1.00
21338;DHT22;10827;50.878;4.382;2022-07-29T03:53:56;19.70;1.00
21338;DHT22;10827;50.878;4.382;2022-07-29T03:56:23;19.40;1.00
21338;DHT22;10827;50.878;4.382;2022-07-29T03:58:51;19.20;1.00
21338;DHT22;10827;50.878;4.382;2022-07-29T04:01:19;19.10;1.00
21338;DHT22;10827;50.878;4.382;2022-07-29T04:03:45;19.20;1.00
21338;DHT22;10827;50.878;4.382;2022-07-29T04:06:11;19.30;1.00
21338;DHT22;10827;50.878;4.382;2022-07-29T04:08:37;19.00;1.00
21338;DHT22;10827;50.878;4.382;2022-07-29T04:11:04;19.00;1.00
21338;DHT22;10827;50.878;4.382;2022-07-29T04:13:31;18.70;1.00
21338;DHT22;10827;50.878;4.382;2022-07-29T04:18:23;18.80;1.00
21338;DHT22;10827;50.878;4.382;2022-07-29T04:20:49;18.50;1.00
21338;DHT22;10827;50.878;4.382;2022-07-29T04:23:16;18.50;1.00
21338;DHT22;10827;50.878;4.382;2022-07-29T04:25:42;18.40;1.00
21338;DHT22;10827;50.878;4.382;2022-07-29T04:28:08;18.50;1.00
21338;DHT22;10827;50.878;4.382;2022-07-29T04:30:36;18.20;1.00
21338;DHT22;10827;50.878;4.382;2022-07-29T04:33:03;18.10;1.00
21338;DHT22;10827;50.878;4.382;2022-07-29T04:35:30;18.30;1.00
21338;DHT22;10827;50.878;4.382;2022-07-29T04:37:56;18.40;1.00
21338;DHT22;10827;50.878;4.382;2022-07-29T04:40:22;18.30;1.00
21338;DHT22;10827;50.878;4.382;2022-07-29T04:42:48;18.40;1.00
21338;DHT22;10827;50.878;4.382;2022-07-29T04:45:14;18.50;1.00
21338;DHT22;10827;50.878;4.382;2022-07-29T04:47:40;18.50;1.00
21338;DHT22;10827;50.878;4.382;2022-07-29T04:50:08;18.50;1.00
21338;DHT22;10827;50.878;4.382;2022-07-29T04:52:34;18.60;1.00
21338;DHT22;10827;50.878;4.382;2022-07-29T04:55:01;18.80;1.00
21338;DHT22;10827;50.878;4.382;2022-07-29T05:07:11;19.20;1.00
21338;DHT22;10827;50.878;4.382;2022-07-29T05:09:37;19.20;1.00
21338;DHT22;10827;50.878;4.382;2022-07-29T05:12:03;19.10;1.00
21338;DHT22;10827;50.878;4.382;2022-07-29T05:14:28;19.10;1.00
21338;DHT22;10827;50.878;4.382;2022-07-29T05:16:54;19.20;1.00
21338;DHT22;10827;50.878;4.382;2022-07-29T05:19:22;19.20;1.00
21338;DHT22;10827;50.878;4.382;2022-07-29T05:21:48;19.20;1.00
21338;DHT22;10827;50.878;4.382;2022-07-29T05:24:14;19.10;1.00
21338;DHT22;10827;50.878;4.382;2022-07-29T05:26:40;19.30;1.00
21338;DHT22;10827;50.878;4.382;2022-07-29T05:31:32;19.10;1.00
21338;DHT22;10827;50.878;4.382;2022-07-29T05:41:18;18.60;1.00
21338;DHT22;10827;50.878;4.382;2022-07-29T05:46:10;18.90;1.00
21338;DHT22;10827;50.878;4.382;2022-07-29T05:48:36;19.30;1.00
21338;DHT22;10827;50.878;4.382;2022-07-29T05:51:02;19.30;1.00
21338;DHT22;10827;50.878;4.382;2022-07-29T05:53:27;19.00;1.00
21338;DHT22;10827;50.878;4.382;2022-07-29T05:55:55;18.90;1.00
21338;DHT22;10827;50.878;4.382;2022-07-29T05:58:21;18.50;1.00
21338;DHT22;10827;50.878;4.382;2022-07-29T06:00:47;18.60;1.00
21338;DHT22;10827;50.878;4.382;2022-07-29T06:03:14;18.90;1.00
21338;DHT22;10827;50.878;4.382;2022-07-29T06:05:42;19.00;1.00
21338;DHT22;10827;50.878;4.382;2022-07-29T06:08:08;19.20;1.00
21338;DHT22;10827;50.878;4.382;2022-07-29T06:10:35;19.10;1.00
21338;DHT22;10827;50.878;4.382;2022-07-29T06:13:01;19.60;1.00
21338;DHT22;10827;50.878;4.382;2022-07-29T06:15:26;19.70;1.00
21338;DHT22;10827;50.878;4.382;2022-07-29T06:17:52;19.60;1.00
21338;DHT22;10827;50.878;4.382;2022-07-29T06:20:18;19.70;1.00
21338;DHT22;10827;50.878;4.382;2022-07-29T06:22:44;19.60;1.00
21338;DHT22;10827;50.878;4.382;2022-07-29T06:25:10;19.20;1.00
21338;DHT22;10827;50.878;4.382;2022-07-29T06:27:36;18.90;1.00
21338;DHT22;10827;50.878;4.382;2022-07-29T06:30:02;19.30;1.00
21338;DHT22;10827;50.878;4.382;2022-07-29T06:34:54;19.30;1.00
21338;DHT22;10827;50.878;4.382;2022-07-29T06:37:19;19.30;1.00
21338;DHT22;10827;50.878;4.382;2022-07-29T06:39:45;19.50;1.00
21338;DHT22;10827;50.878;4.382;2022-07-29T06:42:11;20.10;1.00
21338;DHT22;10827;50.878;4.382;2022-07-29T06:44:37;20.30;1.00
21338;DHT22;10827;50.878;4.382;2022-07-29T06:47:03;20.20;1.00
21338;DHT22;10827;50.878;4.382;2022-07-29T06:49:28;19.40;1.00
21338;DHT22;10827;50.878;4.382;2022-07-29T06:51:55;19.20;1.00
21338;DHT22;10827;50.878;4.382;2022-07-29T06:54:20;19.40;1.00
21338;DHT22;10827;50.878;4.382;2022-07-29T06:56:47;19.40;1.00
21338;DHT22;10827;50.878;4.382;2022-07-29T06:59:13;19.40;1.00
21338;DHT22;10827;50.878;4.382;2022-07-29T07:01:41;19.50;1.00
21338;DHT22;10827;50.878;4.382;2022-07-29T07:04:08;19.80;1.00
21338;DHT22;10827;50.878;4.382;2022-07-29T07:06:34;20.30;1.00
21338;DHT22;10827;50.878;4.382;2022-07-29T07:09:00;20.40;1.00
21338;DHT22;10827;50.878;4.382;2022-07-29T07:11:26;20.70;1.00
21338;DHT22;10827;50.878;4.382;2022-07-29T07:13:51;21.30;1.00
21338;DHT22;10827;50.878;4.382;2022-07-29T07:16:17;20.70;1.00
21338;DHT22;10827;50.878;4.382;2022-07-29T07:18:43;20.40;1.00
21338;DHT22;10827;50.878;4.382;2022-07-29T07:21:11;20.20;1.00
21338;DHT22;10827;50.878;4.382;2022-07-29T07:23:37;20.30;1.00
21338;DHT22;10827;50.878;4.382;2022-07-29T07:26:03;20.20;1.00
21338;DHT22;10827;50.878;4.382;2022-07-29T07:28:30;20.40;1.00
21338;DHT22;10827;50.878;4.382;2022-07-29T07:30:56;20.50;1.00
21338;DHT22;10827;50.878;4.382;2022-07-29T07:33:21;20.70;1.00
21338;DHT22;10827;50.878;4.382;2022-07-29T07:38:13;20.50;1.00
21338;DHT22;10827;50.878;4.382;2022-07-29T07:40:40;20.10;1.00
21338;DHT22;10827;50.878;4.382;2022-07-29T07:43:06;20.20;1.00
21338;DHT22;10827;50.878;4.382;2022-07-29T07:45:32;20.20;1.00
21338;DHT22;10827;50.878;4.382;2022-07-29T07:47:58;20.10;1.00
21338;DHT22;10827;50.878;4.382;2022-07-29T07:50:24;20.40;1.00
21338;DHT22;10827;50.878;4.382;2022-07-29T07:52:52;20.50;1.00
21338;DHT22;10827;50.878;4.382;2022-07-29T07:55:18;20.40;1.00
21338;DHT22;10827;50.878;4.382;2022-07-29T07:57:44;20.60;1.00
21338;DHT22;10827;50.878;4.382;2022-07-29T08:00:12;20.50;1.00
21338;DHT22;10827;50.878;4.382;2022-07-29T08:02:39;20.40;1.00
21338;DHT22;10827;50.878;4.382;2022-07-29T08:05:06;20.90;1.00
21338;DHT22;10827;50.878;4.382;2022-07-29T08:07:32;20.40;1.00
21338;DHT22;10827;50.878;4.382;2022-07-29T08:09:58;20.60;1.00
21338;DHT22;10827;50.878;4.382;2022-07-29T08:12:23;20.50;1.00
21338;DHT22;10827;50.878;4.382;2022-07-29T08:14:49;20.90;1.00
21338;DHT22;10827;50.878;4.382;2022-07-29T08:17:15;20.90;1.00
21338;DHT22;10827;50.878;4.382;2022-07-29T08:19:41;20.90;1.00
21338;DHT22;10827;50.878;4.382;2022-07-29T08:22:06;20.90;1.00
21338;DHT22;10827;50.878;4.382;2022-07-29T08:24:32;20.90;1.00
21338;DHT22;10827;50.878;4.382;2022-07-29T08:27:17;21.00;1.00
21338;DHT22;10827;50.878;4.382;2022-07-29T08:29:43;21.00;1.00
21338;DHT22;10827;50.878;4.382;2022-07-29T08:32:09;21.10;1.00
21338;DHT22;10827;50.878;4.382;2022-07-29T08:37:01;21.60;1.00
21338;DHT22;10827;50.878;4.382;2022-07-29T08:39:26;21.30;1.00
21338;DHT22;10827;50.878;4.382;2022-07-29T08:41:52;21.40;1.00
21338;DHT22;10827;50.878;4.382;2022-07-29T08:44:19;21.50;1.00
21338;DHT22;10827;50.878;4.382;2022-07-29T08:46:47;21.60;1.00
21338;DHT22;10827;50.878;4.382;2022-07-29T08:49:13;21.60;1.00
21338;DHT22;10827;50.878;4.382;2022-07-29T08:51:40;21.60;1.00
21338;DHT22;10827;50.878;4.382;2022-07-29T08:54:08;22.30;1.00
21338;DHT22;10827;50.878;4.382;2022-07-29T08:56:34;22.20;1.00
21338;DHT22;10827;50.878;4.382;2022-07-29T08:59:03;22.10;1.00
21338;DHT22;10827;50.878;4.382;2022-07-29T09:01:33;22.00;1.00
21338;DHT22;10827;50.878;4.382;2022-07-29T09:03:59;22.20;1.00
21338;DHT22;10827;50.878;4.382;2022-07-29T09:06:30;22.20;1.00
21338;DHT22;10827;50.878;4.382;2022-07-29T09:08:59;22.10;1.00
21338;DHT22;10827;50.878;4.382;2022-07-29T09:11:25;22.10;1.00
21338;DHT22;10827;50.878;4.382;2022-07-29T09:13:51;22.20;1.00
21338;DHT22;10827;50.878;4.382;2022-07-29T09:16:16;22.30;1.00
21338;DHT22;10827;50.878;4.382;2022-07-29T09:18:44;22.40;99.90
21338;DHT22;10827;50.878;4.382;2022-07-29T09:21:12;22.80;99.90
21338;DHT22;10827;50.878;4.382;2022-07-29T09:26:41;23.20;99.90
21338;DHT22;10827;50.878;4.382;2022-07-29T09:29:10;23.40;99.90
21338;DHT22;10827;50.878;4.382;2022-07-29T09:31:38;23.30;54.20
21338;DHT22;10827;50.878;4.382;2022-07-29T09:34:05;23.40;99.90
21338;DHT22;10827;50.878;4.382;2022-07-29T09:36:42;23.30;1.00
21338;DHT22;10827;50.878;4.382;2022-07-29T09:39:08;23.40;14.70
21338;DHT22;10827;50.878;4.382;2022-07-29T09:41:53;23.20;1.00
21338;DHT22;10827;50.878;4.382;2022-07-29T09:44:19;23.40;1.00
21338;DHT22;10827;50.878;4.382;2022-07-29T09:49:20;24.10;99.90
21338;DHT22;10827;50.878;4.382;2022-07-29T09:51:45;23.70;99.90
21338;DHT22;10827;50.878;4.382;2022-07-29T09:54:25;23.70;1.00
21338;DHT22;10827;50.878;4.382;2022-07-29T09:56:54;23.90;1.00
21338;DHT22;10827;50.878;4.382;2022-07-29T09:59:20;23.70;99.90
21338;DHT22;10827;50.878;4.382;2022-07-29T10:01:48;23.70;99.90
21338;DHT22;10827;50.878;4.382;2022-07-29T10:04:17;23.80;99.90
21338;DHT22;10827;50.878;4.382;2022-07-29T10:07:03;24.10;1.00
21338;DHT22;10827;50.878;4.382;2022-07-29T10:09:31;24.10;1.00
21338;DHT22;10827;50.878;4.382;2022-07-29T10:12:10;24.20;1.00
21338;DHT22;10827;50.878;4.382;2022-07-29T10:14:38;24.20;99.90
21338;DHT22;10827;50.878;4.382;2022-07-29T10:17:05;24.40;99.90
21338;DHT22;10827;50.878;4.382;2022-07-29T10:19:33;25.00;99.90
21338;DHT22;10827;50.878;4.382;2022-07-29T10:22:00;24.90;99.10
21338;DHT22;10827;50.878;4.382;2022-07-29T10:24:26;24.80;1.00
21338;DHT22;10827;50.878;4.382;2022-07-29T10:26:55;24.70;1.00
21338;DHT22;10827;50.878;4.382;2022-07-29T10:29:21;24.80;99.90
21338;DHT22;10827;50.878;4.382;2022-07-29T10:32:06;24.70;99.90
21338;DHT22;10827;50.878;4.382;2022-07-29T10:43:29;25.50;99.90
21338;DHT22;10827;50.878;4.382;2022-07-29T10:45:57;25.70;1.00
21338;DHT22;10827;50.878;4.382;2022-07-29T10:48:25;25.60;1.00
21338;DHT22;10827;50.878;4.382;2022-07-29T10:50:59;25.60;1.00
21338;DHT22;10827;50.878;4.382;2022-07-29T10:53:47;25.60;1.00
21338;DHT22;10827;50.878;4.382;2022-07-29T10:56:32;25.60;1.00
21338;DHT22;10827;50.878;4.382;2022-07-29T11:01:46;25.60;99.90
21338;DHT22;10827;50.878;4.382;2022-07-29T11:04:11;25.50;99.90
21338;DHT22;10827;50.878;4.382;2022-07-29T11:09:28;26.00;1.00
21338;DHT22;10827;50.878;4.382;2022-07-29T11:11:57;28.20;1.00
21338;DHT22;10827;50.878;4.382;2022-07-29T11:15:02;26.20;98.40
21338;DHT22;10827;50.878;4.382;2022-07-29T11:17:28;26.20;1.00
21338;DHT22;10827;50.878;4.382;2022-07-29T11:22:57;25.80;1.00
21338;DHT22;10827;50.878;4.382;2022-07-29T11:25:24;25.80;99.90
21338;DHT22;10827;50.878;4.382;2022-07-29T11:27:52;25.90;99.90
21338;DHT22;10827;50.878;4.382;2022-07-29T11:30:18;26.00;1.00
21338;DHT22;10827;50.878;4.382;2022-07-29T11:32:44;26.00;1.00
21338;DHT22;10827;50.878;4.382;2022-07-29T11:37:39;26.20;1.00
21338;DHT22;10827;50.878;4.382;2022-07-29T11:47:46;25.70;99.90
21338;DHT22;10827;50.878;4.382;2022-07-29T11:50:36;25.80;1.00
21338;DHT22;10827;50.878;4.382;2022-07-29T11:53:12;25.80;1.00
21338;DHT22;10827;50.878;4.382;2022-07-29T11:55:40;26.20;18.30
21338;DHT22;10827;50.878;4.382;2022-07-29T11:58:06;26.30;1.00
21338;DHT22;10827;50.878;4.382;2022-07-29T12:00:40;26.70;99.90
21338;DHT22;10827;50.878;4.382;2022-07-29T12:03:09;26.60;99.90
21338;DHT22;10827;50.878;4.382;2022-07-29T12:05:44;26.30;1.00
21338;DHT22;10827;50.878;4.382;2022-07-29T12:08:21;26.30;1.00
21338;DHT22;10827;50.878;4.382;2022-07-29T12:10:49;26.90;99.90
21338;DHT22;10827;50.878;4.382;2022-07-29T12:13:17;26.90;1.00
21338;DHT22;10827;50.878;4.382;2022-07-29T12:15:55;27.10;1.00
21338;DHT22;10827;50.878;4.382;2022-07-29T12:18:22;27.30;1.00
21338;DHT22;10827;50.878;4.382;2022-07-29T12:20:48;27.40;1.00
21338;DHT22;10827;50.878;4.382;2022-07-29T12:23:15;27.40;1.00
21338;DHT22;10827;50.878;4.382;2022-07-29T12:25:43;27.40;1.00
21338;DHT22;10827;50.878;4.382;2022-07-29T12:28:12;27.60;99.90
21338;DHT22;10827;50.878;4.382;2022-07-29T12:30:47;28.10;99.90
21338;DHT22;10827;50.878;4.382;2022-07-29T12:33:25;28.20;99.90
21338;DHT22;10827;50.878;4.382;2022-07-29T12:35:57;28.20;35.90
21338;DHT22;10827;50.878;4.382;2022-07-29T12:38:23;28.10;1.00
21338;DHT22;10827;50.878;4.382;2022-07-29T12:40:52;27.80;1.00
21338;DHT22;10827;50.878;4.382;2022-07-29T12:43:23;27.60;21.50
21338;DHT22;10827;50.878;4.382;2022-07-29T12:45:56;27.60;16.50
21338;DHT22;10827;50.878;4.382;2022-07-29T12:48:42;27.70;1.00
21338;DHT22;10827;50.878;4.382;2022-07-29T12:51:09;27.40;1.00
21338;DHT22;10827;50.878;4.382;2022-07-29T12:53:36;27.50;1.00
21338;DHT22;10827;50.878;4.382;2022-07-29T12:56:04;27.40;1.00
21338;DHT22;10827;50.878;4.382;2022-07-29T12:58:33;28.10;8.20
21338;DHT22;10827;50.878;4.382;2022-07-29T13:01:06;28.10;1.00
21338;DHT22;10827;50.878;4.382;2022-07-29T13:03:56;28.10;1.00
21338;DHT22;10827;50.878;4.382;2022-07-29T13:09:19;28.50;1.00
21338;DHT22;10827;50.878;4.382;2022-07-29T13:11:49;28.40;1.00
21338;DHT22;10827;50.878;4.382;2022-07-29T13:17:09;28.30;1.00
21338;DHT22;10827;50.878;4.382;2022-07-29T13:19:41;28.40;1.00
21338;DHT22;10827;50.878;4.382;2022-07-29T13:22:15;28.80;1.00
21338;DHT22;10827;50.878;4.382;2022-07-29T13:24:52;29.10;1.00
21338;DHT22;10827;50.878;4.382;2022-07-29T13:27:22;29.60;1.00
21338;DHT22;10827;50.878;4.382;2022-07-29T13:29:49;29.60;1.00
21338;DHT22;10827;50.878;4.382;2022-07-29T13:32:17;30.00;1.00
21338;DHT22;10827;50.878;4.382;2022-07-29T13:34:43;30.40;1.00
21338;DHT22;10827;50.878;4.382;2022-07-29T13:37:08;30.30;99.90
21338;DHT22;10827;50.878;4.382;2022-07-29T13:39:34;30.00;1.00
21338;DHT22;10827;50.878;4.382;2022-07-29T13:42:00;30.10;99.90
21338;DHT22;10827;50.878;4.382;2022-07-29T13:44:26;30.30;99.90
21338;DHT22;10827;50.878;4.382;2022-07-29T13:46:52;31.00;1.00
21338;DHT22;10827;50.878;4.382;2022-07-29T13:49:17;30.80;99.90
21338;DHT22;10827;50.878;4.382;2022-07-29T13:51:43;31.30;99.90
21338;DHT22;10827;50.878;4.382;2022-07-29T13:54:09;31.60;99.90
21338;DHT22;10827;50.878;4.382;2022-07-29T13:56:35;31.80;99.90
21338;DHT22;10827;50.878;4.382;2022-07-29T13:59:00;32.50;99.90
21338;DHT22;10827;50.878;4.382;2022-07-29T14:01:26;32.70;99.90
21338;DHT22;10827;50.878;4.382;2022-07-29T14:03:53;32.10;99.90
21338;DHT22;10827;50.878;4.382;2022-07-29T14:06:18;32.00;99.90
21338;DHT22;10827;50.878;4.382;2022-07-29T14:08:44;32.10;99.90
21338;DHT22;10827;50.878;4.382;2022-07-29T14:11:10;32.30;99.90
21338;DHT22;10827;50.878;4.382;2022-07-29T14:13:36;32.00;99.90
21338;DHT22;10827;50.878;4.382;2022-07-29T14:16:02;32.30;99.90
21338;DHT22;10827;50.878;4.382;2022-07-29T14:18:27;32.30;99.90
21338;DHT22;10827;50.878;4.382;2022-07-29T14:20:53;32.60;99.90
21338;DHT22;10827;50.878;4.382;2022-07-29T14:23:19;32.10;99.90
21338;DHT22;10827;50.878;4.382;2022-07-29T14:25:44;32.70;99.90
21338;DHT22;10827;50.878;4.382;2022-07-29T14:28:10;33.20;99.90
21338;DHT22;10827;50.878;4.382;2022-07-29T14:30:36;32.60;99.90
21338;DHT22;10827;50.878;4.382;2022-07-29T14:33:02;32.60;99.90
21338;DHT22;10827;50.878;4.382;2022-07-29T14:35:28;32.60;99.90
21338;DHT22;10827;50.878;4.382;2022-07-29T14:37:55;33.10;99.90
21338;DHT22;10827;50.878;4.382;2022-07-29T14:40:20;33.60;99.90
21338;DHT22;10827;50.878;4.382;2022-07-29T14:42:46;32.80;81.00
21338;DHT22;10827;50.878;4.382;2022-07-29T14:45:12;31.70;1.00
21338;DHT22;10827;50.878;4.382;2022-07-29T14:47:38;30.90;1.00
21338;DHT22;10827;50.878;4.382;2022-07-29T14:50:05;30.60;1.00
21338;DHT22;10827;50.878;4.382;2022-07-29T14:52:31;30.60;1.00
21338;DHT22;10827;50.878;4.382;2022-07-29T14:54:57;30.70;99.90
21338;DHT22;10827;50.878;4.382;2022-07-29T14:57:23;31.30;99.90
21338;DHT22;10827;50.878;4.382;2022-07-29T14:59:48;31.90;99.90
21338;DHT22;10827;50.878;4.382;2022-07-29T15:02:14;31.50;99.90
21338;DHT22;10827;50.878;4.382;2022-07-29T15:04:40;32.20;99.90
21338;DHT22;10827;50.878;4.382;2022-07-29T15:07:05;32.00;99.90
21338;DHT22;10827;50.878;4.382;2022-07-29T15:09:31;31.80;99.90
21338;DHT22;10827;50.878;4.382;2022-07-29T15:11:57;31.90;1.00
21338;DHT22;10827;50.878;4.382;2022-07-29T15:14:23;32.00;99.90
21338;DHT22;10827;50.878;4.382;2022-07-29T15:16:48;32.20;99.90
21338;DHT22;10827;50.878;4.382;2022-07-29T15:19:14;33.70;1.00
21338;DHT22;10827;50.878;4.382;2022-07-29T15:21:40;33.80;99.90
21338;DHT22;10827;50.878;4.382;2022-07-29T15:24:06;33.60;90.00
21338;DHT22;10827;50.878;4.382;2022-07-29T15:26:32;33.80;60.00
21338;DHT22;10827;50.878;4.382;2022-07-29T15:28:59;33.30;74.10
21338;DHT22;10827;50.878;4.382;2022-07-29T15:31:26;33.40;57.40
21338;DHT22;10827;50.878;4.382;2022-07-29T15:33:51;33.70;89.20
21338;DHT22;10827;50.878;4.382;2022-07-29T15:36:17;34.00;39.70
21338;DHT22;10827;50.878;4.382;2022-07-29T15:38:43;34.10;24.00
21338;DHT22;10827;50.878;4.382;2022-07-29T15:41:13;33.90;28.50
21338;DHT22;10827;50.878;4.382;2022-07-29T15:43:43;34.50;1.00
21338;DHT22;10827;50.878;4.382;2022-07-29T15:46:13;34.50;76.20
21338;DHT22;10827;50.878;4.382;2022-07-29T15:48:57;34.50;60.00
21338;DHT22;10827;50.878;4.382;2022-07-29T15:51:22;34.70;1.00
21338;DHT22;10827;50.878;4.382;2022-07-29T15:53:48;34.60;1.00
21338;DHT22;10827;50.878;4.382;2022-07-29T15:56:14;35.30;1.10
21338;DHT22;10827;50.878;4.382;2022-07-29T15:58:39;35.60;1.00
21338;DHT22;10827;50.878;4.382;2022-07-29T16:01:05;35.00;1.00
21338;DHT22;10827;50.878;4.382;2022-07-29T16:03:31;35.00;1.00
21338;DHT22;10827;50.878;4.382;2022-07-29T16:05:57;35.20;1.00
21338;DHT22;10827;50.878;4.382;2022-07-29T16:08:23;35.30;1.00
21338;DHT22;10827;50.878;4.382;2022-07-29T16:10:49;34.90;1.00
21338;DHT22;10827;50.878;4.382;2022-07-29T16:13:14;34.40;1.00
21338;DHT22;10827;50.878;4.382;2022-07-29T16:15:40;34.40;1.00
21338;DHT22;10827;50.878;4.382;2022-07-29T16:18:07;33.80;1.00
21338;DHT22;10827;50.878;4.382;2022-07-29T16:20:37;33.40;16.00
21338;DHT22;10827;50.878;4.382;2022-07-29T16:23:03;33.50;3.20
21338;DHT22;10827;50.878;4.382;2022-07-29T16:25:29;33.80;1.00
21338;DHT22;10827;50.878;4.382;2022-07-29T16:27:54;34.50;1.00
21338;DHT22;10827;50.878;4.382;2022-07-29T16:30:20;34.50;1.00
21338;DHT22;10827;50.878;4.382;2022-07-29T16:32:47;34.60;10.60
21338;DHT22;10827;50.878;4.382;2022-07-29T16:35:13;34.30;5.20
21338;DHT22;10827;50.878;4.382;2022-07-29T16:37:39;33.80;1.00
21338;DHT22;10827;50.878;4.382;2022-07-29T16:40:05;33.70;1.00
21338;DHT22;10827;50.878;4.382;2022-07-29T16:42:33;33.70;1.00
21338;DHT22;10827;50.878;4.382;2022-07-29T16:44:59;33.90;3.50
21338;DHT22;10827;50.878;4.382;2022-07-29T16:47:25;33.70;1.00
21338;DHT22;10827;50.878;4.382;2022-07-29T16:49:51;34.00;1.00
21338;DHT22;10827;50.878;4.382;2022-07-29T16:52:17;34.30;1.00
21338;DHT22;10827;50.878;4.382;2022-07-29T16:54:43;34.60;1.00
21338;DHT22;10827;50.878;4.382;2022-07-29T16:57:09;34.30;4.20
21338;DHT22;10827;50.878;4.382;2022-07-29T16:59:36;34.50;1.00
21338;DHT22;10827;50.878;4.382;2022-07-29T17:02:02;34.40;1.00
21338;DHT22;10827;50.878;4.382;2022-07-29T17:04:29;34.40;99.90
21338;DHT22;10827;50.878;4.382;2022-07-29T17:06:55;34.40;1.00
21338;DHT22;10827;50.878;4.382;2022-07-29T17:09:20;34.30;99.90